Time;durP1;ratioP1;P1;durP2;ratioP2;P2;SDS_P1;SDS_P2;PMS_P1;PMS_P2;Temp;Humidity;BMP_temperature;BMP_pressure;BME280_temperature;BME280_humidity;BME280_pressure;Samples;Min_cycle;Max_cycle;Signal;HPM_P1;HPM_P2
2023/04/16 00:01:54;;;;;;;;;;;10.60;70.20;;;;;;9176549;19;20504;-70
2023/04/16 00:05:00;;;;;;;;;;;10.60;70.20;;;;;;9177169;19;19922;-69
2023/04/16 00:08:06;;;;;;;;;;;10.60;70.20;;;;;;9177162;19;20377;-69
2023/04/16 00:11:13;;;;;;;;;;;10.70;70.30;;;;;;9174512;19;20333;-69
2023/04/16 00:14:17;;;;;;;;;;;10.70;70.30;;;;;;9171610;19;19918;-69
2023/04/16 00:17:22;;;;;;;;;;;10.70;70.30;;;;;;9177079;19;20324;-69
2023/04/16 00:20:29;;;;;;;;;;;10.70;70.30;;;;;;9175315;19;19925;-69
2023/04/16 00:23:37;;;;;;;;;;;10.70;70.30;;;;;;9176287;19;19915;-70
2023/04/16 00:26:45;;;;;;;;;;;10.70;70.30;;;;;;9177095;19;19922;-69
2023/04/16 00:29:50;;;;;;;;;;;10.70;70.30;;;;;;9174120;19;20455;-70
2023/04/16 00:32:54;;;;;;;;;;;10.70;70.30;;;;;;9174563;19;19960;-70
2023/04/16 00:36:00;;;;;;;;;;;10.70;70.40;;;;;;9174344;19;19915;-69
2023/04/16 00:39:07;;;;;;;;;;;10.70;70.40;;;;;;9176172;19;19922;-70
2023/04/16 00:42:13;;;;;;;;;;;10.70;70.40;;;;;;9176144;19;19914;-70
2023/04/16 00:45:17;;;;;;;;;;;10.80;70.50;;;;;;9170959;19;20343;-70
2023/04/16 00:48:23;;;;;;;;;;;10.80;70.50;;;;;;9174397;19;19922;-70
2023/04/16 00:51:27;;;;;;;;;;;10.80;70.50;;;;;;9173179;19;19918;-69
2023/04/16 00:54:35;;;;;;;;;;;10.80;70.50;;;;;;9176943;19;19929;-70
2023/04/16 00:57:39;;;;;;;;;;;10.80;70.50;;;;;;9173364;19;19922;-70
2023/04/16 01:00:45;;;;;;;;;;;10.80;70.60;;;;;;9174143;19;19919;-70
2023/04/16 01:03:49;;;;;;;;;;;10.80;70.50;;;;;;9175039;19;20392;-70
2023/04/16 01:06:55;;;;;;;;;;;10.80;70.60;;;;;;9174743;19;19938;-70
2023/04/16 01:10:03;;;;;;;;;;;10.80;70.70;;;;;;9175299;19;20274;-70
2023/04/16 01:13:06;;;;;;;;;;;10.80;70.60;;;;;;9171835;19;20356;-70
2023/04/16 01:16:13;;;;;;;;;;;10.80;70.60;;;;;;9174457;19;19995;-71
2023/04/16 01:19:17;;;;;;;;;;;10.80;70.60;;;;;;9174449;19;20353;-70
2023/04/16 01:22:25;;;;;;;;;;;10.80;70.60;;;;;;9174181;19;20256;-70
2023/04/16 01:25:29;;;;;;;;;;;10.80;70.60;;;;;;9172379;19;19956;-70
2023/04/16 01:28:35;;;;;;;;;;;10.80;70.60;;;;;;9173976;19;19938;-70
2023/04/16 01:31:38;;;;;;;;;;;10.80;70.60;;;;;;9170128;19;20341;-70
2023/04/16 01:35:08;;;;;;;;;;;10.80;70.60;;;;;;9181515;19;20606;-70
2023/04/16 01:38:13;;;;;;;;;;;10.80;70.70;;;;;;9182937;19;19914;-70
2023/04/16 01:41:19;;;;;;;;;;;10.80;70.70;;;;;;9182395;19;19926;-70
2023/04/16 01:44:24;;;;;;;;;;;10.80;70.70;;;;;;9177446;19;19929;-70
2023/04/16 01:47:30;;;;;;;;;;;10.80;70.70;;;;;;9182307;19;19926;-70
2023/04/16 01:50:34;;;;;;;;;;;10.80;70.70;;;;;;9181374;19;19955;-70
2023/04/16 01:53:41;;;;;;;;;;;10.90;70.80;;;;;;9179543;19;19918;-70
2023/04/16 01:56:45;;;;;;;;;;;10.90;70.80;;;;;;9179396;19;20284;-70
2023/04/16 01:59:51;;;;;;;;;;;10.90;70.80;;;;;;9181492;19;19919;-70
2023/04/16 02:02:54;;;;;;;;;;;10.80;70.80;;;;;;9180524;19;19918;-70
2023/04/16 02:06:05;;;;;;;;;;;10.90;70.80;;;;;;9181721;19;19923;-70
2023/04/16 02:09:10;;;;;;;;;;;10.90;70.80;;;;;;9181269;19;19915;-70
2023/04/16 02:12:17;;;;;;;;;;;10.90;70.80;;;;;;9176903;19;19919;-70
2023/04/16 02:15:24;;;;;;;;;;;10.90;70.90;;;;;;9178951;19;19998;-68
2023/04/16 02:18:29;;;;;;;;;;;10.90;70.90;;;;;;9180448;19;19921;-70
2023/04/16 02:21:34;;;;;;;;;;;10.90;70.90;;;;;;9177596;19;19926;-70
2023/04/16 02:24:41;;;;;;;;;;;10.90;70.90;;;;;;9178642;19;19923;-70
2023/04/16 02:27:47;;;;;;;;;;;10.90;70.90;;;;;;9178322;19;19918;-70
2023/04/16 02:31:08;;;;;;;;;;;10.90;70.90;;;;;;9177232;19;19921;-70
2023/04/16 02:34:17;;;;;;;;;;;10.90;70.90;;;;;;9178964;19;19923;-70
2023/04/16 02:37:23;;;;;;;;;;;10.90;70.90;;;;;;9179615;19;19918;-70
2023/04/16 02:40:29;;;;;;;;;;;10.90;70.90;;;;;;9179415;19;20332;-70
2023/04/16 02:43:35;;;;;;;;;;;10.90;70.90;;;;;;9179529;19;19915;-70
2023/04/16 02:46:39;;;;;;;;;;;10.90;70.90;;;;;;9172960;19;19937;-70
2023/04/16 02:49:44;;;;;;;;;;;10.90;71.00;;;;;;9178577;19;19911;-71
2023/04/16 02:52:48;;;;;;;;;;;10.90;71.00;;;;;;9177131;19;19919;-70
2023/04/16 02:55:56;;;;;;;;;;;11.00;71.00;;;;;;9179224;19;19926;-69
2023/04/16 02:59:00;;;;;;;;;;;11.00;71.20;;;;;;9179399;19;19922;-70
2023/04/16 03:02:05;;;;;;;;;;;11.00;71.10;;;;;;9175773;19;19919;-70
2023/04/16 03:05:11;;;;;;;;;;;11.00;71.00;;;;;;9177773;19;19922;-70
2023/04/16 03:08:17;;;;;;;;;;;11.00;71.00;;;;;;9177746;19;19938;-70
2023/04/16 03:11:22;;;;;;;;;;;10.90;71.00;;;;;;9178727;19;19918;-70
2023/04/16 03:14:30;;;;;;;;;;;11.00;71.10;;;;;;9179529;19;19925;-70
2023/04/16 03:17:34;;;;;;;;;;;11.00;71.10;;;;;;9178432;19;19925;-71
2023/04/16 03:20:40;;;;;;;;;;;10.90;71.10;;;;;;9179266;19;19926;-69
2023/04/16 03:23:44;;;;;;;;;;;10.90;71.10;;;;;;9179040;19;19929;-70
2023/04/16 03:26:51;;;;;;;;;;;10.90;71.10;;;;;;9178774;19;19915;-70
2023/04/16 03:29:58;;;;;;;;;;;10.90;71.20;;;;;;9177255;19;20007;-70
2023/04/16 03:33:03;;;;;;;;;;;10.90;71.70;;;;;;9174997;19;19942;-69
2023/04/16 03:36:07;;;;;;;;;;;10.90;71.10;;;;;;9176748;19;19927;-70
2023/04/16 03:39:13;;;;;;;;;;;10.90;71.10;;;;;;9178294;19;20376;-70
2023/04/16 03:42:19;;;;;;;;;;;10.90;71.10;;;;;;9176887;19;19931;-70
2023/04/16 03:45:25;;;;;;;;;;;10.90;71.20;;;;;;9173539;19;19915;-68
2023/04/16 03:48:33;;;;;;;;;;;10.90;71.10;;;;;;9176485;19;20355;-70
2023/04/16 03:51:39;;;;;;;;;;;10.90;71.10;;;;;;9176614;19;20363;-70
2023/04/16 03:54:43;;;;;;;;;;;10.90;71.20;;;;;;9177579;19;19930;-70
2023/04/16 03:58:02;;;;;;;;;;;10.90;71.20;;;;;;9176017;19;19914;-70
2023/04/16 04:01:08;;;;;;;;;;;10.90;71.20;;;;;;9176362;19;20471;-70
2023/04/16 04:04:16;;;;;;;;;;;10.90;71.20;;;;;;9177821;19;19918;-71
2023/04/16 04:07:20;;;;;;;;;;;10.90;71.30;;;;;;9176227;19;19937;-71
2023/04/16 04:10:25;;;;;;;;;;;10.90;71.30;;;;;;9177455;19;19915;-70
2023/04/16 04:13:31;;;;;;;;;;;10.90;72.00;;;;;;9172882;19;20328;-70
2023/04/16 04:16:37;;;;;;;;;;;10.90;71.30;;;;;;9171132;19;19915;-71
2023/04/16 04:19:41;;;;;;;;;;;10.80;71.20;;;;;;9176837;19;19927;-70
2023/04/16 04:22:55;;;;;;;;;;;10.80;71.20;;;;;;9174850;19;19919;-70
2023/04/16 04:26:04;;;;;;;;;;;10.80;71.20;;;;;;9175024;19;19921;-70
2023/04/16 04:29:12;;;;;;;;;;;10.80;71.30;;;;;;9176705;19;19926;-70
2023/04/16 04:32:16;;;;;;;;;;;10.80;71.30;;;;;;9171991;19;20331;-71
2023/04/16 04:35:22;;;;;;;;;;;10.80;72.00;;;;;;9174419;19;19919;-69
2023/04/16 04:38:26;;;;;;;;;;;10.80;71.40;;;;;;9174292;19;20252;-70
2023/04/16 04:41:32;;;;;;;;;;;10.80;71.90;;;;;;9174636;19;19915;-70
2023/04/16 04:44:38;;;;;;;;;;;10.80;71.30;;;;;;9169722;19;19922;-70
2023/04/16 04:47:46;;;;;;;;;;;10.80;71.30;;;;;;9174215;19;19914;-70
2023/04/16 04:50:50;;;;;;;;;;;10.70;71.30;;;;;;9176272;19;19919;-70
2023/04/16 04:53:56;;;;;;;;;;;10.70;71.30;;;;;;9173582;19;19922;-70
2023/04/16 04:57:00;;;;;;;;;;;10.70;71.30;;;;;;9173940;19;20206;-70
2023/04/16 05:00:10;;;;;;;;;;;10.70;71.40;;;;;;9173634;19;20328;-70
2023/04/16 05:03:24;;;;;;;;;;;10.70;71.40;;;;;;9173096;19;20337;-70
2023/04/16 05:06:30;;;;;;;;;;;10.70;71.40;;;;;;9176192;19;20257;-70
2023/04/16 05:09:33;;;;;;;;;;;10.70;71.40;;;;;;9183563;19;20256;-70
2023/04/16 05:12:40;;;;;;;;;;;10.70;71.40;;;;;;9179598;19;19934;-70
2023/04/16 05:15:45;;;;;;;;;;;10.70;71.40;;;;;;9182835;19;19923;-70
2023/04/16 05:18:51;;;;;;;;;;;10.70;71.50;;;;;;9181037;19;19906;-71
2023/04/16 05:21:55;;;;;;;;;;;10.70;71.40;;;;;;9183986;19;20454;-70
2023/04/16 05:25:01;;;;;;;;;;;10.70;71.40;;;;;;9183114;19;19919;-70
2023/04/16 05:28:04;;;;;;;;;;;10.70;71.40;;;;;;9182491;19;19947;-70
2023/04/16 05:31:12;;;;;;;;;;;10.70;71.40;;;;;;9182336;19;20249;-71
2023/04/16 05:34:16;;;;;;;;;;;10.70;71.40;;;;;;9183135;19;20400;-71
2023/04/16 05:37:22;;;;;;;;;;;10.70;71.40;;;;;;9182814;19;19914;-70
2023/04/16 05:40:25;;;;;;;;;;;10.70;71.40;;;;;;9182060;19;20329;-70
2023/04/16 05:43:31;;;;;;;;;;;10.70;71.40;;;;;;9180666;19;19929;-70
2023/04/16 05:46:37;;;;;;;;;;;10.70;71.50;;;;;;9176523;19;19934;-70
2023/04/16 05:49:43;;;;;;;;;;;10.70;71.50;;;;;;9181788;19;19954;-71
2023/04/16 05:52:46;;;;;;;;;;;10.70;71.50;;;;;;9179697;19;19910;-70
2023/04/16 05:55:52;;;;;;;;;;;10.70;71.50;;;;;;9182050;19;19922;-70
2023/04/16 05:58:56;;;;;;;;;;;10.70;71.50;;;;;;9181745;19;20265;-70
2023/04/16 06:02:04;;;;;;;;;;;10.70;71.50;;;;;;9179968;19;19914;-71
2023/04/16 06:05:08;;;;;;;;;;;10.70;71.60;;;;;;9180774;19;19922;-71
2023/04/16 06:08:13;;;;;;;;;;;10.70;71.60;;;;;;9178690;19;20336;-70
2023/04/16 06:11:17;;;;;;;;;;;10.70;71.60;;;;;;9180442;19;19926;-71
2023/04/16 06:14:23;;;;;;;;;;;10.70;71.60;;;;;;9179464;19;19929;-70
2023/04/16 06:17:28;;;;;;;;;;;10.70;71.60;;;;;;9181242;19;19929;-70
2023/04/16 06:20:35;;;;;;;;;;;10.70;71.60;;;;;;9179863;19;19919;-71
2023/04/16 06:23:38;;;;;;;;;;;10.80;71.60;;;;;;9180909;19;19922;-70
2023/04/16 06:26:44;;;;;;;;;;;10.80;71.60;;;;;;9181478;19;19927;-70
2023/04/16 06:29:48;;;;;;;;;;;10.80;71.60;;;;;;9180484;19;19922;-71
2023/04/16 06:32:55;;;;;;;;;;;10.80;71.50;;;;;;9178483;19;19919;-71
2023/04/16 06:35:59;;;;;;;;;;;10.90;71.60;;;;;;9180238;19;19929;-70
2023/04/16 06:39:05;;;;;;;;;;;10.90;71.60;;;;;;9180409;19;19926;-70
2023/04/16 06:42:09;;;;;;;;;;;10.90;71.60;;;;;;9180129;19;19993;-70
2023/04/16 06:45:15;;;;;;;;;;;10.90;72.20;;;;;;9174694;19;19911;-70
2023/04/16 06:48:26;;;;;;;;;;;10.90;71.60;;;;;;9179890;19;19915;-70
2023/04/16 06:51:32;;;;;;;;;;;10.90;71.60;;;;;;9177414;19;19918;-70
2023/04/16 06:54:36;;;;;;;;;;;11.00;71.60;;;;;;9179498;19;19930;-70
2023/04/16 06:57:41;;;;;;;;;;;11.00;71.60;;;;;;9178201;19;19922;-70
2023/04/16 07:00:46;;;;;;;;;;;11.00;71.60;;;;;;9179701;19;20213;-70
2023/04/16 07:03:53;;;;;;;;;;;11.00;71.50;;;;;;9176350;19;19918;-69
2023/04/16 07:06:57;;;;;;;;;;;11.00;71.60;;;;;;9179665;19;19919;-70
2023/04/16 07:10:04;;;;;;;;;;;11.10;71.60;;;;;;9179788;19;20312;-70
2023/04/16 07:13:08;;;;;;;;;;;11.10;71.60;;;;;;9177142;19;19945;-70
2023/04/16 07:16:14;;;;;;;;;;;11.10;71.60;;;;;;9177912;19;19918;-70
2023/04/16 07:19:19;;;;;;;;;;;11.10;71.60;;;;;;9179780;19;20013;-70
2023/04/16 07:22:25;;;;;;;;;;;11.10;71.70;;;;;;9179177;19;19925;-70
2023/04/16 07:25:29;;;;;;;;;;;11.10;71.60;;;;;;9176943;19;20384;-70
2023/04/16 07:28:35;;;;;;;;;;;11.20;71.70;;;;;;9178572;19;19925;-71
2023/04/16 07:31:39;;;;;;;;;;;11.20;71.70;;;;;;9174933;19;19925;-70
2023/04/16 07:34:46;;;;;;;;;;;11.20;71.70;;;;;;9179186;19;19910;-70
2023/04/16 07:37:50;;;;;;;;;;;11.30;71.80;;;;;;9178919;19;19927;-70
2023/04/16 07:40:56;;;;;;;;;;;11.30;71.70;;;;;;9178670;19;19927;-71
2023/04/16 07:44:00;;;;;;;;;;;11.40;71.70;;;;;;9172963;19;19927;-70
2023/04/16 07:47:06;;;;;;;;;;;11.40;71.70;;;;;;9177824;19;19938;-70
2023/04/16 07:50:12;;;;;;;;;;;11.40;71.70;;;;;;9170812;19;19930;-70
2023/04/16 07:53:18;;;;;;;;;;;11.50;71.70;;;;;;9164335;19;19923;-71
2023/04/16 07:56:21;;;;;;;;;;;11.60;71.60;;;;;;9166210;19;19997;-69
2023/04/16 07:59:27;;;;;;;;;;;11.60;71.70;;;;;;9162850;19;19919;-70
2023/04/16 08:02:31;;;;;;;;;;;11.70;71.70;;;;;;9156962;19;19948;-70
2023/04/16 08:05:39;;;;;;;;;;;11.70;71.70;;;;;;9159050;19;19925;-70
2023/04/16 08:08:43;;;;;;;;;;;11.80;71.60;;;;;;9170550;19;19937;-70
2023/04/16 08:11:49;;;;;;;;;;;11.80;71.60;;;;;;9169220;19;19922;-70
2023/04/16 08:14:53;;;;;;;;;;;11.90;71.60;;;;;;9170180;19;20030;-70
2023/04/16 08:17:59;;;;;;;;;;;12.00;71.60;;;;;;9170626;19;19918;-70
2023/04/16 08:21:05;;;;;;;;;;;12.00;71.60;;;;;;9170563;19;19919;-70
2023/04/16 08:24:10;;;;;;;;;;;12.10;71.60;;;;;;9170501;19;19941;-71
2023/04/16 08:27:15;;;;;;;;;;;12.20;71.60;;;;;;9169650;19;20371;-70
2023/04/16 08:30:25;;;;;;;;;;;12.20;71.50;;;;;;9170513;19;19923;-70
2023/04/16 08:33:29;;;;;;;;;;;12.20;71.50;;;;;;9166246;19;19919;-70
2023/04/16 08:36:37;;;;;;;;;;;12.30;71.50;;;;;;9168565;19;19946;-70
2023/04/16 08:39:40;;;;;;;;;;;12.30;71.40;;;;;;9168481;19;19919;-70
2023/04/16 08:42:49;;;;;;;;;;;12.30;71.50;;;;;;9168500;19;19923;-70
2023/04/16 08:45:55;;;;;;;;;;;12.40;71.50;;;;;;9164583;19;19926;-70
2023/04/16 08:49:01;;;;;;;;;;;12.50;71.50;;;;;;9168672;19;20277;-70
2023/04/16 08:52:09;;;;;;;;;;;12.50;71.50;;;;;;9167892;19;19919;-70
2023/04/16 08:55:17;;;;;;;;;;;12.50;71.50;;;;;;9167802;19;19930;-70
2023/04/16 08:58:22;;;;;;;;;;;12.60;71.60;;;;;;9168625;19;19931;-70
2023/04/16 09:01:27;;;;;;;;;;;12.60;71.50;;;;;;9167681;19;19911;-69
2023/04/16 09:04:35;;;;;;;;;;;12.70;71.50;;;;;;9168215;19;20474;-70
2023/04/16 09:07:43;;;;;;;;;;;12.80;71.50;;;;;;9167982;19;20213;-69
2023/04/16 09:10:47;;;;;;;;;;;12.80;71.50;;;;;;9167699;19;19919;-69
2023/04/16 09:13:53;;;;;;;;;;;12.90;71.50;;;;;;9163218;19;20644;-69
2023/04/16 09:17:00;;;;;;;;;;;12.90;71.50;;;;;;9168157;19;20340;-70
2023/04/16 09:20:07;;;;;;;;;;;13.00;71.40;;;;;;9168435;19;19934;-70
2023/04/16 09:23:13;;;;;;;;;;;13.00;71.40;;;;;;9167887;19;19918;-70
2023/04/16 09:26:19;;;;;;;;;;;13.10;71.40;;;;;;9166877;19;19915;-70
2023/04/16 09:29:34;;;;;;;;;;;13.20;71.40;;;;;;9167808;19;19919;-69
2023/04/16 09:32:40;;;;;;;;;;;13.20;71.40;;;;;;9164088;19;19930;-70
2023/04/16 09:35:48;;;;;;;;;;;13.30;71.40;;;;;;9167776;19;20649;-70
2023/04/16 09:38:56;;;;;;;;;;;13.40;71.40;;;;;;9167164;19;20347;-68
2023/04/16 09:42:10;;;;;;;;;;;13.50;71.40;;;;;;9166909;19;19914;-69
2023/04/16 09:45:16;;;;;;;;;;;13.50;71.30;;;;;;9162017;19;19937;-69
2023/04/16 09:48:29;;;;;;;;;;;13.70;71.40;;;;;;9166822;19;19938;-68
2023/04/16 09:51:37;;;;;;;;;;;13.70;71.30;;;;;;9165424;19;20345;-68
2023/04/16 09:54:46;;;;;;;;;;;13.80;71.30;;;;;;9170600;19;19929;-69
2023/04/16 09:57:59;;;;;;;;;;;13.90;71.30;;;;;;9170055;19;19919;-69
2023/04/16 10:01:03;;;;;;;;;;;14.00;71.30;;;;;;9169569;19;20399;-70
2023/04/16 10:04:08;;;;;;;;;;;14.10;71.30;;;;;;9171956;19;19919;-69
2023/04/16 10:07:12;;;;;;;;;;;14.20;71.30;;;;;;9175737;19;19919;-68
2023/04/16 10:10:20;;;;;;;;;;;14.40;71.30;;;;;;9175193;19;20415;-69
2023/04/16 10:13:26;;;;;;;;;;;14.40;71.10;;;;;;9170648;19;19926;-69
2023/04/16 10:16:33;;;;;;;;;;;14.50;71.10;;;;;;9174240;19;19922;-69
2023/04/16 10:19:37;;;;;;;;;;;14.60;71.00;;;;;;9175193;19;19970;-70
2023/04/16 10:22:43;;;;;;;;;;;14.70;71.00;;;;;;9174286;19;19926;-70
2023/04/16 10:25:48;;;;;;;;;;;14.70;71.00;;;;;;9172473;19;19930;-69
2023/04/16 10:28:54;;;;;;;;;;;14.80;71.00;;;;;;9172044;19;19923;-70
2023/04/16 10:31:59;;;;;;;;;;;14.90;71.10;;;;;;9171822;19;19927;-69
2023/04/16 10:35:05;;;;;;;;;;;15.00;71.10;;;;;;9171549;19;19918;-69
2023/04/16 10:38:36;;;;;;;;;;;15.00;71.00;;;;;;9167543;19;19919;-70
2023/04/16 10:41:44;;;;;;;;;;;15.20;71.00;;;;;;9168054;19;19918;-70
2023/04/16 10:44:47;;;;;;;;;;;15.30;71.00;;;;;;9166189;19;20401;-68
2023/04/16 10:47:56;;;;;;;;;;;15.40;70.90;;;;;;9166423;19;19911;-69
2023/04/16 10:51:00;;;;;;;;;;;15.50;70.80;;;;;;9172004;19;19922;-69
2023/04/16 10:54:20;;;;;;;;;;;15.60;70.70;;;;;;9168196;19;19926;-69
2023/04/16 10:57:29;;;;;;;;;;;15.70;70.70;;;;;;9170184;19;20268;-69
2023/04/16 11:00:49;;;;;;;;;;;15.80;70.70;;;;;;9170195;19;19931;-70
2023/04/16 11:03:53;;;;;;;;;;;15.80;70.60;;;;;;9172337;19;19933;-69
2023/04/16 11:07:02;;;;;;;;;;;15.90;70.60;;;;;;9172001;19;19926;-69
2023/04/16 11:10:07;;;;;;;;;;;16.00;70.50;;;;;;9172668;19;19923;-69
2023/04/16 11:13:16;;;;;;;;;;;16.00;70.50;;;;;;9169695;19;19922;-68
2023/04/16 11:16:20;;;;;;;;;;;16.00;70.50;;;;;;9172815;19;19925;-69
2023/04/16 11:19:26;;;;;;;;;;;16.10;70.50;;;;;;9167394;19;19923;-69
2023/04/16 11:22:29;;;;;;;;;;;16.10;70.50;;;;;;9167435;19;20288;-68
2023/04/16 11:25:35;;;;;;;;;;;16.10;70.40;;;;;;9167329;19;19925;-69
2023/04/16 11:28:41;;;;;;;;;;;16.20;70.50;;;;;;9167139;19;19918;-68
2023/04/16 11:31:50;;;;;;;;;;;16.20;70.40;;;;;;9166913;19;20300;-70
2023/04/16 11:34:54;;;;;;;;;;;16.30;70.40;;;;;;9172790;19;20476;-67
2023/04/16 11:38:00;;;;;;;;;;;16.30;70.40;;;;;;9171956;19;19922;-70
2023/04/16 11:41:04;;;;;;;;;;;16.40;70.40;;;;;;9172515;19;19922;-70
2023/04/16 11:44:23;;;;;;;;;;;16.60;70.50;;;;;;9165689;19;19929;-71
2023/04/16 11:47:26;;;;;;;;;;;16.70;70.40;;;;;;9171793;19;19922;-68
2023/04/16 11:50:32;;;;;;;;;;;16.80;70.30;;;;;;9171506;19;19922;-70
2023/04/16 11:53:37;;;;;;;;;;;16.90;70.30;;;;;;9169482;19;19953;-71
2023/04/16 11:56:46;;;;;;;;;;;17.00;70.20;;;;;;9178198;19;19930;-71
2023/04/16 11:59:52;;;;;;;;;;;17.10;70.10;;;;;;9177267;19;20387;-70
2023/04/16 12:03:17;;;;;;;;;;;17.20;70.60;;;;;;9178122;19;19919;-70
2023/04/16 12:06:21;;;;;;;;;;;17.30;70.00;;;;;;9177843;19;19918;-70
2023/04/16 12:09:29;;;;;;;;;;;17.50;70.00;;;;;;9176138;19;19925;-71
2023/04/16 12:12:34;;;;;;;;;;;17.60;69.90;;;;;;9173764;19;20023;-70
2023/04/16 12:15:49;;;;;;;;;;;17.60;69.80;;;;;;9171739;19;19922;-71
2023/04/16 12:19:02;;;;;;;;;;;17.70;69.80;;;;;;9171265;19;20347;-71
2023/04/16 12:22:08;;;;;;;;;;;17.80;69.80;;;;;;9172204;19;20359;-71
2023/04/16 12:25:13;;;;;;;;;;;17.90;69.70;;;;;;9171270;19;20575;-71
2023/04/16 12:28:27;;;;;;;;;;;18.00;69.70;;;;;;9173918;19;19929;-71
2023/04/16 12:31:39;;;;;;;;;;;18.00;69.60;;;;;;9176355;19;19925;-70
2023/04/16 12:34:51;;;;;;;;;;;18.10;69.50;;;;;;9174045;19;20260;-70
2023/04/16 12:37:55;;;;;;;;;;;18.20;69.40;;;;;;9177504;19;19915;-70
2023/04/16 12:41:01;;;;;;;;;;;18.20;69.30;;;;;;9174820;19;20317;-70
2023/04/16 12:44:06;;;;;;;;;;;18.20;69.30;;;;;;9172642;19;19925;-70
2023/04/16 12:47:14;;;;;;;;;;;18.20;69.30;;;;;;9176369;19;19918;-70
2023/04/16 12:50:17;;;;;;;;;;;18.30;69.30;;;;;;9176525;19;20320;-69
2023/04/16 12:53:23;;;;;;;;;;;18.20;69.20;;;;;;9174466;19;19922;-68
2023/04/16 12:56:27;;;;;;;;;;;18.20;69.20;;;;;;9175645;19;20317;-69
2023/04/16 12:59:33;;;;;;;;;;;18.10;69.20;;;;;;9174813;19;19934;-69
2023/04/16 13:02:38;;;;;;;;;;;18.10;69.20;;;;;;9174952;19;19930;-69
2023/04/16 13:05:44;;;;;;;;;;;18.10;69.10;;;;;;9176025;19;19921;-69
2023/04/16 13:08:48;;;;;;;;;;;18.00;69.10;;;;;;9175544;19;19918;-69
2023/04/16 13:11:54;;;;;;;;;;;18.00;69.20;;;;;;9174635;19;19933;-69
2023/04/16 13:14:58;;;;;;;;;;;17.90;69.10;;;;;;9171372;19;19982;-69
2023/04/16 13:18:05;;;;;;;;;;;17.90;69.20;;;;;;9175117;19;19919;-69
2023/04/16 13:21:09;;;;;;;;;;;17.80;69.90;;;;;;9174921;19;19926;-69
2023/04/16 13:24:15;;;;;;;;;;;17.80;69.20;;;;;;9174363;19;19914;-70
2023/04/16 13:27:19;;;;;;;;;;;17.80;69.20;;;;;;9174777;19;19915;-69
2023/04/16 13:30:25;;;;;;;;;;;17.80;69.20;;;;;;9180812;19;20348;-70
2023/04/16 13:33:30;;;;;;;;;;;17.80;69.10;;;;;;9182105;19;19918;-69
2023/04/16 13:36:36;;;;;;;;;;;17.80;69.10;;;;;;9175350;19;20349;-69
2023/04/16 13:39:40;;;;;;;;;;;17.80;69.10;;;;;;9175472;19;19978;-69
2023/04/16 13:42:46;;;;;;;;;;;17.90;69.20;;;;;;9166210;19;19919;-69
2023/04/16 13:45:49;;;;;;;;;;;17.90;69.00;;;;;;9163944;19;20013;-69
2023/04/16 13:48:57;;;;;;;;;;;17.90;68.90;;;;;;9168656;19;20356;-69
2023/04/16 13:52:01;;;;;;;;;;;17.90;68.90;;;;;;9169220;19;19919;-69
2023/04/16 13:55:08;;;;;;;;;;;18.00;68.90;;;;;;9167413;19;20359;-69
2023/04/16 13:58:12;;;;;;;;;;;18.00;68.90;;;;;;9172441;19;20613;-69
2023/04/16 14:01:18;;;;;;;;;;;18.00;68.80;;;;;;9168784;19;19933;-69
2023/04/16 14:04:23;;;;;;;;;;;18.00;68.80;;;;;;9172745;19;19968;-69
2023/04/16 14:07:29;;;;;;;;;;;18.00;68.80;;;;;;9168663;19;19925;-69
2023/04/16 14:10:33;;;;;;;;;;;17.90;68.70;;;;;;9167362;19;19918;-71
2023/04/16 14:13:39;;;;;;;;;;;17.90;68.70;;;;;;9162873;19;19922;-69
2023/04/16 14:16:43;;;;;;;;;;;17.90;68.70;;;;;;9171836;19;19923;-69
2023/04/16 14:19:50;;;;;;;;;;;17.80;68.70;;;;;;9173637;19;20343;-69
2023/04/16 14:22:54;;;;;;;;;;;17.70;68.70;;;;;;9167927;19;19933;-69
2023/04/16 14:26:00;;;;;;;;;;;17.60;68.70;;;;;;9168652;19;20752;-69
2023/04/16 14:29:04;;;;;;;;;;;17.60;68.70;;;;;;9164369;19;19945;-68
2023/04/16 14:32:10;;;;;;;;;;;17.50;68.70;;;;;;9166778;19;19915;-68
2023/04/16 14:35:15;;;;;;;;;;;17.50;68.80;;;;;;9160771;19;19938;-69
2023/04/16 14:38:21;;;;;;;;;;;17.50;68.80;;;;;;9167477;19;19919;-68
2023/04/16 14:41:26;;;;;;;;;;;17.40;68.70;;;;;;9170059;19;19933;-68
2023/04/16 14:44:31;;;;;;;;;;;17.40;68.80;;;;;;9161501;19;19918;-69
2023/04/16 14:47:36;;;;;;;;;;;17.40;68.80;;;;;;9171885;19;19926;-69
2023/04/16 14:50:44;;;;;;;;;;;17.30;68.80;;;;;;9166615;19;20637;-69
2023/04/16 14:53:48;;;;;;;;;;;17.30;68.80;;;;;;9167287;19;19919;-69
2023/04/16 14:56:53;;;;;;;;;;;17.30;68.80;;;;;;9167383;19;19923;-69
2023/04/16 14:59:57;;;;;;;;;;;17.30;68.80;;;;;;9166706;19;19923;-68
2023/04/16 15:03:03;;;;;;;;;;;17.30;68.80;;;;;;9164418;19;19922;-69
2023/04/16 15:06:09;;;;;;;;;;;17.30;68.70;;;;;;9160958;19;20365;-69
2023/04/16 15:09:16;;;;;;;;;;;17.30;68.70;;;;;;9172417;19;19923;-69
2023/04/16 15:12:20;;;;;;;;;;;17.30;68.70;;;;;;9166330;19;19919;-69
2023/04/16 15:15:26;;;;;;;;;;;17.20;68.60;;;;;;9163491;19;19923;-68
2023/04/16 15:18:30;;;;;;;;;;;17.30;68.70;;;;;;9162290;19;19926;-68
2023/04/16 15:21:37;;;;;;;;;;;17.30;68.70;;;;;;9161259;19;20341;-69
2023/04/16 15:24:41;;;;;;;;;;;17.30;68.60;;;;;;9168536;19;19934;-68
2023/04/16 15:27:47;;;;;;;;;;;17.30;68.60;;;;;;9165701;19;19914;-68
2023/04/16 15:30:51;;;;;;;;;;;17.30;68.60;;;;;;9163367;19;19914;-68
2023/04/16 15:33:58;;;;;;;;;;;17.30;68.60;;;;;;9159845;19;19930;-68
2023/04/16 15:37:04;;;;;;;;;;;17.30;68.60;;;;;;9165408;19;19923;-68
2023/04/16 15:40:09;;;;;;;;;;;17.30;68.50;;;;;;9163150;19;19918;-70
2023/04/16 15:43:13;;;;;;;;;;;17.30;68.50;;;;;;9164915;19;19919;-69
2023/04/16 15:46:19;;;;;;;;;;;17.30;68.40;;;;;;9166170;19;19914;-69
2023/04/16 15:49:23;;;;;;;;;;;17.30;68.40;;;;;;9171500;19;20356;-69
2023/04/16 15:52:33;;;;;;;;;;;17.30;68.40;;;;;;9163025;19;19929;-69
2023/04/16 15:55:37;;;;;;;;;;;17.20;68.50;;;;;;9166013;19;19919;-69
2023/04/16 15:58:42;;;;;;;;;;;17.20;68.50;;;;;;9169849;19;19926;-70
2023/04/16 16:01:46;;;;;;;;;;;17.20;68.50;;;;;;9168743;19;19926;-68
2023/04/16 16:04:52;;;;;;;;;;;17.20;68.60;;;;;;9169838;19;19918;-69
2023/04/16 16:07:58;;;;;;;;;;;17.20;68.50;;;;;;9169005;19;19923;-68
2023/04/16 16:11:04;;;;;;;;;;;17.10;68.50;;;;;;9167100;19;19919;-69
2023/04/16 16:14:07;;;;;;;;;;;17.10;68.50;;;;;;9163118;19;20352;-70
2023/04/16 16:17:13;;;;;;;;;;;17.10;68.50;;;;;;9164973;19;19919;-70
2023/04/16 16:20:17;;;;;;;;;;;17.00;68.40;;;;;;9167767;19;20340;-70
2023/04/16 16:23:25;;;;;;;;;;;17.00;68.50;;;;;;9167249;19;20249;-70
2023/04/16 16:26:29;;;;;;;;;;;17.00;68.50;;;;;;9165236;19;19921;-69
2023/04/16 16:29:35;;;;;;;;;;;16.90;68.50;;;;;;9166809;19;19925;-70
2023/04/16 16:32:39;;;;;;;;;;;16.90;68.50;;;;;;9167889;19;20006;-70
2023/04/16 16:35:45;;;;;;;;;;;16.80;68.60;;;;;;9161911;19;20351;-71
2023/04/16 16:38:51;;;;;;;;;;;16.80;68.50;;;;;;9165910;19;19918;-71
2023/04/16 16:41:56;;;;;;;;;;;16.70;68.50;;;;;;9165804;19;19938;-71
2023/04/16 16:45:03;;;;;;;;;;;16.70;68.50;;;;;;9162090;19;20005;-71
2023/04/16 16:48:09;;;;;;;;;;;16.70;69.10;;;;;;9166923;19;20284;-71
2023/04/16 16:51:15;;;;;;;;;;;16.60;68.40;;;;;;9162324;19;19933;-72
2023/04/16 16:54:22;;;;;;;;;;;16.60;68.40;;;;;;9160349;19;19915;-71
2023/04/16 16:57:26;;;;;;;;;;;16.60;68.40;;;;;;9159827;19;20262;-71
2023/04/16 17:00:32;;;;;;;;;;;16.70;68.40;;;;;;9154838;19;19919;-70
2023/04/16 17:03:36;;;;;;;;;;;16.70;68.40;;;;;;9168016;19;19964;-71
2023/04/16 17:06:45;;;;;;;;;;;16.70;68.40;;;;;;9165885;19;19923;-71
2023/04/16 17:09:50;;;;;;;;;;;16.60;68.30;;;;;;9171561;19;19923;-71
2023/04/16 17:12:56;;;;;;;;;;;16.60;68.30;;;;;;9164492;19;20347;-71
2023/04/16 17:16:00;;;;;;;;;;;16.50;68.30;;;;;;9160847;19;19926;-72
2023/04/16 17:19:06;;;;;;;;;;;16.50;68.30;;;;;;9173629;19;19923;-70
2023/04/16 17:22:10;;;;;;;;;;;16.50;68.30;;;;;;9166390;19;19925;-70
2023/04/16 17:25:18;;;;;;;;;;;16.50;68.30;;;;;;9167329;19;19927;-71
2023/04/16 17:28:22;;;;;;;;;;;16.40;68.30;;;;;;9162829;19;19926;-71
2023/04/16 17:31:27;;;;;;;;;;;16.40;68.30;;;;;;9167793;19;19919;-71
2023/04/16 17:34:31;;;;;;;;;;;16.40;68.20;;;;;;9172873;19;19929;-71
2023/04/16 17:37:37;;;;;;;;;;;16.40;68.30;;;;;;9169101;19;20169;-71
2023/04/16 17:40:43;;;;;;;;;;;16.30;68.20;;;;;;9165477;19;19933;-70
2023/04/16 17:43:49;;;;;;;;;;;16.30;68.20;;;;;;9164894;19;20650;-71
2023/04/16 17:46:53;;;;;;;;;;;16.30;68.20;;;;;;9167495;19;19929;-71
2023/04/16 17:49:59;;;;;;;;;;;16.20;68.10;;;;;;9164697;19;19919;-70
2023/04/16 17:53:03;;;;;;;;;;;16.20;68.20;;;;;;9166095;19;19937;-70
2023/04/16 17:56:10;;;;;;;;;;;16.20;68.20;;;;;;9167164;19;19922;-70
2023/04/16 17:59:14;;;;;;;;;;;16.10;68.10;;;;;;9170070;19;19923;-70
2023/04/16 18:02:20;;;;;;;;;;;16.10;68.10;;;;;;9165541;19;19922;-60